Time;durP1;ratioP1;P1;durP2;ratioP2;P2;SDS_P1;SDS_P2;PMS_P1;PMS_P2;Temp;Humidity;BMP_temperature;BMP_pressure;BME280_temperature;BME280_humidity;BME280_pressure;Samples;Min_cycle;Max_cycle;Signal;HPM_P1;HPM_P2
2022/06/02 00:01:13;;;;;;;5.57;5.07;;;12.20;99.90;;;;;;2084249;28;20035;-70
2022/06/02 00:02:41;;;;;;;7.05;5.20;;;12.10;99.90;;;;;;2081842;28;20112;-70
2022/06/02 00:03:52;;;;;;;5.13;4.72;;;12.10;99.90;;;;;;2083267;28;20030;-70
2022/06/02 00:05:07;;;;;;;5.60;5.10;;;12.10;99.90;;;;;;2082125;28;20028;-70
2022/06/02 00:06:21;;;;;;;5.53;5.03;;;12.00;99.90;;;;;;2083418;28;20497;-70
2022/06/02 00:07:34;;;;;;;5.38;4.90;;;12.00;99.90;;;;;;2084857;28;21077;-70
2022/06/02 00:09:05;;;;;;;6.38;4.97;;;12.00;99.90;;;;;;2086176;28;20025;-70
2022/06/02 00:10:20;;;;;;;6.18;5.68;;;11.90;99.90;;;;;;2084746;28;20037;-70
2022/06/02 00:11:35;;;;;;;9.88;5.50;;;12.00;99.90;;;;;;2082349;28;20120;-70
2022/06/02 00:12:47;;;;;;;5.75;5.30;;;12.00;99.90;;;;;;2086233;28;20029;-70
2022/06/02 00:14:10;;;;;;;5.75;5.10;;;11.90;99.90;;;;;;2084119;28;20473;-70
2022/06/02 00:15:26;;;;;;;5.38;4.97;;;11.90;99.90;;;;;;2080539;28;20033;-70
2022/06/02 00:16:33;;;;;;;6.00;5.50;;;11.80;99.90;;;;;;2084622;28;20022;-70
2022/06/02 00:17:57;;;;;;;7.80;6.10;;;11.90;99.90;;;;;;2080767;28;20029;-70
2022/06/02 00:19:05;;;;;;;5.20;4.80;;;11.80;99.90;;;;;;2080053;28;20034;-70
2022/06/02 00:20:16;;;;;;;5.80;5.30;;;11.80;99.90;;;;;;2090025;28;20040;-70
2022/06/02 00:21:36;;;;;;;6.78;6.20;;;11.80;99.90;;;;;;2087496;28;20481;-70
2022/06/02 00:22:58;;;;;;;6.07;5.57;;;11.80;99.90;;;;;;2083251;28;20025;-70
2022/06/02 00:24:30;;;;;;;8.77;4.78;;;11.70;99.90;;;;;;2083613;28;20100;-70
2022/06/02 00:25:50;;;;;;;7.75;6.10;;;11.70;99.90;;;;;;2083862;28;20021;-70
2022/06/02 00:27:24;;;;;;;6.57;5.38;;;11.60;99.90;;;;;;2080543;28;20477;-70
2022/06/02 00:28:46;;;;;;;6.50;6.00;;;11.60;99.90;;;;;;2083323;28;20551;-70
2022/06/02 00:29:58;;;;;;;6.20;5.60;;;11.60;99.90;;;;;;2079634;28;20613;-70
2022/06/02 00:31:05;;;;;;;6.45;5.45;;;11.60;99.90;;;;;;2083815;28;20025;-70
2022/06/02 00:32:08;;;;;;;5.15;4.75;;;11.60;99.90;;;;;;2081239;28;20413;-70
2022/06/02 00:33:18;;;;;;;6.63;6.03;;;11.60;99.90;;;;;;2084247;28;20029;-70
2022/06/02 00:34:42;;;;;;;6.43;5.82;;;11.60;99.90;;;;;;2080703;28;20026;-70
2022/06/02 00:35:52;;;;;;;5.07;4.68;;;11.60;99.90;;;;;;2085484;28;20044;-70
2022/06/02 00:37:03;;;;;;;6.45;5.72;;;11.50;99.90;;;;;;2082343;28;20087;-70
2022/06/02 00:38:13;;;;;;;6.60;6.00;;;11.50;99.90;;;;;;2083617;28;20017;-70
2022/06/02 00:39:16;;;;;;;6.28;5.28;;;11.50;99.90;;;;;;2081937;28;20025;-70
2022/06/02 00:40:19;;;;;;;6.10;5.35;;;11.50;99.90;;;;;;2081099;28;20033;-70
2022/06/02 00:41:24;;;;;;;5.72;5.25;;;11.50;99.90;;;;;;2085785;28;20041;-70
2022/06/02 00:42:41;;;;;;;6.82;6.13;;;11.50;99.90;;;;;;2083597;28;20025;-70
2022/06/02 00:44:19;;;;;;;7.00;6.43;;;11.50;99.90;;;;;;2083493;28;20741;-70
2022/06/02 00:45:21;;;;;;;6.60;5.97;;;11.50;99.90;;;;;;2084049;28;20041;-70
2022/06/02 00:46:48;;;;;;;5.43;5.03;;;11.40;99.90;;;;;;2085128;28;20021;-70
2022/06/02 00:47:51;;;;;;;7.30;6.60;;;11.40;99.90;;;;;;2086506;28;20016;-70
2022/06/02 00:49:35;;;;;;;7.13;6.53;;;11.40;99.90;;;;;;2083736;28;20481;-70
2022/06/02 00:51:03;;;;;;;6.40;5.80;;;11.40;99.90;;;;;;2084708;28;20057;-70
2022/06/02 00:52:32;;;;;;;6.30;5.78;;;11.30;99.90;;;;;;2080958;28;20036;-70
2022/06/02 00:57:32;;;;;;;6.20;5.60;;;11.20;99.90;;;;;;2082163;28;20025;-70
2022/06/02 00:58:39;;;;;;;6.13;5.63;;;11.20;99.90;;;;;;2080521;28;20155;-70
2022/06/02 01:00:08;;;;;;;7.10;6.40;;;11.20;99.90;;;;;;2082143;28;20071;-70
2022/06/02 01:01:22;;;;;;;7.38;6.25;;;11.20;99.90;;;;;;2083171;28;20065;-70
2022/06/02 01:02:25;;;;;;;6.38;5.78;;;11.20;99.90;;;;;;2082429;28;20048;-70
2022/06/02 01:03:39;;;;;;;7.47;5.85;;;11.20;99.90;;;;;;2083148;28;20013;-70
2022/06/02 01:04:43;;;;;;;7.65;6.97;;;11.20;99.90;;;;;;2082862;28;20057;-70
2022/06/02 01:06:08;;;;;;;8.07;7.47;;;11.10;99.90;;;;;;2080028;28;20033;-70
2022/06/02 01:07:41;;;;;;;7.63;6.75;;;11.10;99.90;;;;;;2084043;28;20025;-70
2022/06/02 01:08:50;;;;;;;7.65;6.95;;;11.10;99.90;;;;;;2079968;28;20088;-70
2022/06/02 01:10:35;;;;;;;9.45;7.43;;;11.10;99.90;;;;;;2082921;28;20032;-70
2022/06/02 01:11:53;;;;;;;6.72;6.13;;;11.10;99.90;;;;;;2077598;28;20453;-70
2022/06/02 01:13:08;;;;;;;6.97;6.38;;;11.00;99.90;;;;;;2078618;28;20108;-70
2022/06/02 01:14:31;;;;;;;7.35;6.65;;;11.00;99.90;;;;;;2077100;28;20184;-70
2022/06/02 01:15:48;;;;;;;7.40;6.70;;;11.00;99.90;;;;;;2075122;28;20088;-70
2022/06/02 01:16:57;;;;;;;8.15;6.90;;;11.00;99.90;;;;;;2077203;28;20195;-70
2022/06/02 01:18:16;;;;;;;7.78;6.97;;;11.00;99.90;;;;;;2081061;28;20488;-70
2022/06/02 01:19:41;;;;;;;7.72;7.03;;;10.90;99.90;;;;;;2081286;28;20072;-70
2022/06/02 01:20:47;;;;;;;7.97;7.28;;;10.90;99.90;;;;;;2085766;28;20073;-70
2022/06/02 01:22:36;;;;;;;8.50;7.75;;;10.90;99.90;;;;;;2082950;28;20021;-70
2022/06/02 01:24:14;;;;;;;7.75;7.05;;;10.90;99.90;;;;;;2083412;28;20017;-70
2022/06/02 01:26:02;;;;;;;8.95;8.15;;;10.80;99.90;;;;;;2077431;28;20068;-70
2022/06/02 01:27:24;;;;;;;12.95;8.20;;;10.80;99.90;;;;;;2079942;28;20026;-70
2022/06/02 01:28:47;;;;;;;9.30;8.40;;;10.80;99.90;;;;;;2077010;28;20029;-70
2022/06/02 01:30:05;;;;;;;10.23;8.75;;;10.80;99.90;;;;;;2078746;28;20057;-70
2022/06/02 01:31:38;;;;;;;10.52;9.35;;;10.70;99.90;;;;;;2077694;28;20119;-70
2022/06/02 01:32:53;;;;;;;8.50;7.80;;;10.70;99.90;;;;;;2079247;28;20094;-70
2022/06/02 01:34:04;;;;;;;10.60;9.43;;;10.70;99.90;;;;;;2084102;28;20028;-70
2022/06/02 01:35:05;;;;;;;10.95;9.98;;;10.70;99.90;;;;;;2082539;28;20029;-70
2022/06/02 01:36:29;;;;;;;10.60;9.60;;;10.70;99.90;;;;;;2081614;28;20029;-70
2022/06/02 01:37:39;;;;;;;10.35;9.43;;;10.70;99.90;;;;;;2085443;28;20056;-70
2022/06/02 01:38:48;;;;;;;11.23;10.10;;;10.70;99.90;;;;;;2083728;28;20036;-70
2022/06/02 01:40:13;;;;;;;10.55;9.55;;;10.70;99.90;;;;;;2085286;28;20022;-70
2022/06/02 01:41:49;;;;;;;10.90;9.90;;;10.70;99.90;;;;;;2085588;28;20079;-70
2022/06/02 01:43:15;;;;;;;13.10;10.38;;;10.70;99.90;;;;;;2078587;28;20068;-70
2022/06/02 01:44:39;;;;;;;11.18;10.05;;;10.60;99.90;;;;;;2080451;28;20033;-70
2022/06/02 01:46:14;;;;;;;11.27;10.05;;;10.50;99.90;;;;;;2082302;28;20036;-70
2022/06/02 01:47:19;;;;;;;13.20;11.80;;;10.50;99.90;;;;;;2064933;28;20054;-70
2022/06/02 01:48:50;;;;;;;13.65;11.57;;;10.50;99.90;;;;;;2080027;28;20462;-70
2022/06/02 01:50:25;;;;;;;12.63;11.32;;;10.50;99.90;;;;;;2083858;28;20044;-70
2022/06/02 01:51:34;;;;;;;11.55;10.45;;;10.50;99.90;;;;;;2077479;28;20038;-70
2022/06/02 01:52:41;;;;;;;9.97;9.03;;;10.40;99.90;;;;;;2084291;28;20033;-70
2022/06/02 01:53:59;;;;;;;11.15;10.00;;;10.50;99.90;;;;;;2082953;28;20264;-70
2022/06/02 01:55:06;;;;;;;10.40;9.40;;;10.40;99.90;;;;;;2081664;28;20025;-70
2022/06/02 01:56:37;;;;;;;12.65;11.55;;;10.50;99.90;;;;;;2081311;28;20564;-70
2022/06/02 01:57:37;;;;;;;;;;;10.50;99.90;;;;;;2087313;28;20028;-70
2022/06/02 01:58:56;;;;;;;13.20;11.23;;;10.40;99.90;;;;;;2082967;28;19905;-70
2022/06/02 02:00:02;;;;;;;11.13;10.02;;;10.40;99.90;;;;;;2083461;28;20044;-70
2022/06/02 02:01:32;;;;;;;11.48;10.38;;;10.40;99.90;;;;;;2083922;28;20071;-70
2022/06/02 02:02:41;;;;;;;11.98;10.75;;;10.40;99.90;;;;;;2081318;28;20037;-70
2022/06/02 02:04:02;;;;;;;11.45;10.30;;;10.30;99.90;;;;;;2087614;28;20028;-70
2022/06/02 02:05:02;;;;;;;12.18;11.05;;;10.40;99.90;;;;;;2085204;28;20055;-70
2022/06/02 02:06:24;;;;;;;12.77;10.82;;;10.40;99.90;;;;;;2084191;28;20036;-70
2022/06/02 02:08:03;;;;;;;11.90;10.75;;;10.40;99.90;;;;;;2083307;28;20104;-70
2022/06/02 02:09:35;;;;;;;10.65;9.65;;;10.30;99.90;;;;;;2081522;28;20080;-70
2022/06/02 02:11:04;;;;;;;11.23;10.20;;;10.30;99.90;;;;;;2082503;28;20378;-70
2022/06/02 02:12:10;;;;;;;11.25;10.25;;;10.30;99.90;;;;;;2084692;28;20017;-70
2022/06/02 02:13:23;;;;;;;11.10;9.07;;;10.30;99.90;;;;;;2082692;28;20025;-70
2022/06/02 02:14:55;;;;;;;10.82;9.70;;;10.30;99.90;;;;;;2082082;28;20470;-70
2022/06/02 02:16:10;;;;;;;11.02;10.02;;;10.20;99.90;;;;;;2087331;28;20108;-70
2022/06/02 02:17:32;;;;;;;11.82;10.63;;;10.20;99.90;;;;;;2081477;28;20025;-70
2022/06/02 02:18:47;;;;;;;12.85;11.45;;;10.30;99.90;;;;;;2083281;28;20017;-70
2022/06/02 02:20:02;;;;;;;10.45;9.45;;;10.20;99.90;;;;;;2084589;28;20032;-70
2022/06/02 02:21:20;;;;;;;11.88;10.77;;;10.20;99.90;;;;;;2086624;28;20033;-70
2022/06/02 02:22:42;;;;;;;10.82;9.73;;;10.20;99.90;;;;;;2082965;28;20100;-70
2022/06/02 02:23:51;;;;;;;12.55;10.98;;;10.20;99.90;;;;;;2084758;28;20103;-70
2022/06/02 02:25:10;;;;;;;12.48;11.20;;;10.20;99.90;;;;;;2081078;28;20485;-70
2022/06/02 02:26:30;;;;;;;12.05;10.85;;;10.20;99.90;;;;;;2083988;28;20100;-70
2022/06/02 02:28:04;;;;;;;12.18;9.95;;;10.20;99.90;;;;;;2080855;28;20030;-70
2022/06/02 02:29:13;;;;;;;10.80;9.80;;;10.20;99.90;;;;;;2087703;28;20048;-70
2022/06/02 02:30:14;;;;;;;13.25;11.95;;;10.10;99.90;;;;;;2078132;28;20030;-70
2022/06/02 02:31:36;;;;;;;11.68;10.40;;;10.10;99.90;;;;;;2080742;28;20032;-70
2022/06/02 02:32:55;;;;;;;10.13;9.23;;;10.10;99.90;;;;;;2080509;28;20041;-70
2022/06/02 02:34:03;;;;;;;11.60;10.10;;;10.10;99.90;;;;;;2088625;28;20036;-70
2022/06/02 02:35:12;;;;;;;12.55;11.43;;;10.10;99.90;;;;;;2081459;28;20083;-70
2022/06/02 02:36:32;;;;;;;12.32;11.18;;;10.10;99.90;;;;;;2085894;28;20029;-70
2022/06/02 02:37:52;;;;;;;13.20;11.90;;;10.10;99.90;;;;;;2086983;28;20025;-70
2022/06/02 02:39:20;;;;;;;11.50;10.40;;;10.10;99.90;;;;;;2083243;28;20044;-70
2022/06/02 02:40:30;;;;;;;12.77;11.52;;;10.00;99.90;;;;;;2086353;28;20477;-70
2022/06/02 02:41:55;;;;;;;11.23;10.23;;;10.00;99.90;;;;;;2082438;28;20160;-70
2022/06/02 02:43:20;;;;;;;12.50;11.20;;;10.00;99.90;;;;;;2084026;28;20025;-70
2022/06/02 02:44:43;;;;;;;12.05;10.82;;;10.00;99.90;;;;;;2083441;28;20047;-70
2022/06/02 02:46:09;;;;;;;11.90;9.75;;;10.00;99.90;;;;;;2085799;28;20033;-70
2022/06/02 02:47:38;;;;;;;10.73;9.80;;;9.90;99.90;;;;;;2083473;28;20025;-70
2022/06/02 02:48:50;;;;;;;11.65;10.57;;;10.00;99.90;;;;;;2083817;28;20040;-70
2022/06/02 02:50:05;;;;;;;9.40;8.32;;;9.90;99.90;;;;;;2086231;28;20527;-70
2022/06/02 02:51:31;;;;;;;11.45;10.02;;;9.90;99.90;;;;;;2084397;28;20087;-70
2022/06/02 02:53:01;;;;;;;11.13;10.05;;;9.90;99.90;;;;;;2082623;28;20551;-70
2022/06/02 02:54:21;;;;;;;10.40;9.35;;;9.90;99.90;;;;;;2083190;28;20033;-70
2022/06/02 02:55:56;;;;;;;12.13;10.88;;;9.80;99.90;;;;;;2082513;28;20057;-70
2022/06/02 02:56:56;;;;;;;12.73;11.52;;;9.80;99.90;;;;;;2082842;28;20523;-70
2022/06/02 02:58:00;;;;;;;12.55;11.35;;;9.80;99.90;;;;;;2081378;28;20444;-70
2022/06/02 02:59:24;;;;;;;11.65;10.55;;;9.80;99.90;;;;;;2085599;28;20573;-70
2022/06/02 03:00:35;;;;;;;12.63;11.40;;;9.80;99.90;;;;;;2081890;28;20025;-70
2022/06/02 03:02:04;;;;;;;;;;;9.80;99.90;;;;;;2084237;28;20025;-70
2022/06/02 03:03:21;;;;;;;11.88;10.77;;;9.70;99.90;;;;;;2074650;28;19915;-70
2022/06/02 03:04:40;;;;;;;12.82;11.63;;;9.70;99.90;;;;;;2081482;28;20029;-70
2022/06/02 03:06:14;;;;;;;13.27;11.95;;;9.70;99.90;;;;;;2081991;28;20103;-70
2022/06/02 03:07:15;;;;;;;12.23;10.75;;;9.70;99.90;;;;;;2084698;28;20025;-70
2022/06/02 03:08:46;;;;;;;11.23;10.13;;;9.70;99.90;;;;;;2082785;28;20485;-70
2022/06/02 03:10:11;;;;;;;12.85;11.60;;;9.70;99.90;;;;;;2083122;28;20072;-70
2022/06/02 03:11:47;;;;;;;11.45;10.35;;;9.70;99.90;;;;;;2087504;28;20083;-70
2022/06/02 03:13:24;;;;;;;12.35;10.75;;;9.70;99.90;;;;;;2079484;28;20037;-70
2022/06/02 03:15:21;;;;;;;11.45;10.35;;;9.70;99.90;;;;;;2084698;28;20473;-70
2022/06/02 03:16:23;;;;;;;14.13;12.10;;;9.60;99.90;;;;;;2065272;28;20524;-70
2022/06/02 03:17:36;;;;;;;13.32;12.13;;;9.60;99.90;;;;;;2069168;28;20101;-70
2022/06/02 03:19:12;;;;;;;15.38;13.85;;;9.60;99.90;;;;;;2064778;28;20065;-70
2022/06/02 03:20:30;;;;;;;13.15;11.60;;;9.60;99.90;;;;;;2063692;28;20514;-70
2022/06/02 03:21:35;;;;;;;14.88;13.35;;;9.60;99.90;;;;;;2066916;28;20676;-70
2022/06/02 03:23:10;;;;;;;15.30;13.15;;;9.60;99.90;;;;;;2083969;28;20028;-70
2022/06/02 03:24:20;;;;;;;14.85;13.13;;;9.60;99.90;;;;;;2082757;28;20041;-70
2022/06/02 03:25:28;;;;;;;;;;;9.60;99.90;;;;;;2080577;28;20029;-70
2022/06/02 03:26:47;;;;;;;14.32;12.82;;;9.50;99.90;;;;;;2080184;28;19994;-70
2022/06/02 03:28:05;;;;;;;11.40;10.23;;;9.50;99.90;;;;;;2087079;28;20080;-70
2022/06/02 03:29:08;;;;;;;14.85;13.30;;;9.50;99.90;;;;;;2084234;28;20033;-70
2022/06/02 03:30:14;;;;;;;17.65;13.30;;;9.50;99.90;;;;;;2084486;28;20035;-70
2022/06/02 03:31:59;;;;;;;14.82;13.43;;;9.50;99.90;;;;;;2083826;28;20021;-70
2022/06/02 03:33:05;;;;;;;12.65;11.35;;;9.50;99.90;;;;;;2085405;28;20029;-70
2022/06/02 03:34:34;;;;;;;13.27;11.88;;;9.50;99.90;;;;;;2087651;28;20036;-70
2022/06/02 03:35:50;;;;;;;12.05;10.85;;;9.50;99.90;;;;;;2081907;28;20024;-69
2022/06/02 03:37:11;;;;;;;11.07;10.00;;;9.50;99.90;;;;;;2085151;28;20045;-70
2022/06/02 03:38:43;;;;;;;14.15;12.75;;;9.50;99.90;;;;;;2087736;28;20013;-70
2022/06/02 03:40:01;;;;;;;12.10;11.00;;;9.50;99.90;;;;;;2083970;28;20055;-70
2022/06/02 03:41:14;;;;;;;14.32;12.82;;;9.50;99.90;;;;;;2083208;28;20033;-70
2022/06/02 03:42:37;;;;;;;12.40;11.20;;;9.50;99.90;;;;;;2084152;28;20021;-70
2022/06/02 03:43:54;;;;;;;14.73;13.30;;;9.50;99.90;;;;;;2081792;28;20017;-69
2022/06/02 03:45:22;;;;;;;13.65;12.25;;;9.50;99.90;;;;;;2081331;28;20097;-69
2022/06/02 03:46:58;;;;;;;15.70;12.85;;;9.50;99.90;;;;;;2083876;28;20040;-69
2022/06/02 03:48:15;;;;;;;14.82;13.43;;;9.50;99.90;;;;;;2077255;28;20029;-69
2022/06/02 03:49:21;;;;;;;15.35;13.85;;;9.50;99.90;;;;;;2084912;28;20021;-69
2022/06/02 03:50:50;;;;;;;16.10;14.30;;;9.50;99.90;;;;;;2081312;28;20103;-69
2022/06/02 03:52:22;;;;;;;15.23;13.82;;;9.50;99.90;;;;;;2080375;28;20592;-69
2022/06/02 03:53:38;;;;;;;14.45;12.95;;;9.50;99.90;;;;;;2081847;28;20033;-69
2022/06/02 03:54:55;;;;;;;15.07;13.63;;;9.50;99.90;;;;;;2085983;28;20084;-69
2022/06/02 03:56:02;;;;;;;14.65;13.20;;;9.50;99.90;;;;;;2083735;28;20028;-69
2022/06/02 03:57:17;;;;;;;16.02;13.85;;;9.50;99.90;;;;;;2085234;28;20021;-69
2022/06/02 03:58:39;;;;;;;13.60;12.20;;;9.60;99.90;;;;;;2082875;28;20022;-69
2022/06/02 04:00:08;;;;;;;15.45;13.95;;;9.70;99.90;;;;;;2082213;28;20021;-69
2022/06/02 04:01:17;;;;;;;15.88;14.07;;;9.70;99.90;;;;;;2082668;28;20060;-69
2022/06/02 04:02:29;;;;;;;15.48;13.82;;;9.80;99.90;;;;;;2083600;28;20030;-69
2022/06/02 04:04:00;;;;;;;15.43;13.93;;;9.90;99.90;;;;;;2080694;28;20029;-69
2022/06/02 04:05:19;;;;;;;15.15;13.70;;;10.00;99.90;;;;;;2080359;28;20029;-69
2022/06/02 04:06:26;;;;;;;14.25;12.93;;;10.10;99.90;;;;;;2080273;28;20021;-69
2022/06/02 04:07:38;;;;;;;14.85;13.45;;;10.20;99.90;;;;;;2084566;28;20025;-69
2022/06/02 04:09:10;;;;;;;15.85;14.10;;;10.40;99.90;;;;;;2082485;28;20575;-69
2022/06/02 04:10:19;;;;;;;14.63;13.20;;;10.50;99.90;;;;;;2080250;28;20411;-69
2022/06/02 04:13:39;;;;;;;13.88;12.30;;;10.70;99.90;;;;;;2082247;28;20033;-69
2022/06/02 04:14:46;;;;;;;15.43;13.82;;;10.80;99.90;;;;;;2081875;28;20037;-69
2022/06/02 04:15:53;;;;;;;15.13;13.70;;;10.80;99.90;;;;;;2084291;28;20059;-69
2022/06/02 04:17:05;;;;;;;15.48;13.32;;;10.80;99.90;;;;;;2085355;28;20693;-69
2022/06/02 04:18:30;;;;;;;14.95;13.45;;;10.90;99.90;;;;;;2083387;28;20029;-69
2022/06/02 04:21:45;;;;;;;16.98;13.60;;;11.30;99.90;;;;;;2083096;28;20388;-69
2022/06/02 04:23:19;;;;;;;14.27;12.88;;;11.60;99.90;;;;;;2081630;28;20029;-69
2022/06/02 04:24:39;;;;;;;14.18;12.75;;;11.90;99.90;;;;;;2083474;28;20029;-69
2022/06/02 04:26:11;;;;;;;13.82;12.45;;;12.20;99.90;;;;;;2083416;28;20423;-69
2022/06/02 04:27:19;;;;;;;14.65;12.38;;;12.50;99.90;;;;;;2085214;28;20519;-69
2022/06/02 04:28:56;;;;;;;14.98;13.50;;;12.60;99.90;;;;;;2081841;28;20029;-69
2022/06/02 04:30:06;;;;;;;15.80;13.90;;;12.70;99.90;;;;;;2080816;28;20029;-69
2022/06/02 04:31:25;;;;;;;16.20;14.52;;;12.70;99.90;;;;;;2084923;28;20087;-69
2022/06/02 04:33:01;;;;;;;15.30;13.68;;;12.60;99.90;;;;;;2081652;28;20022;-69
2022/06/02 04:34:41;;;;;;;14.88;13.38;;;12.60;99.90;;;;;;2082728;28;20028;-69
2022/06/02 04:36:00;;;;;;;13.82;12.35;;;12.60;99.90;;;;;;2083518;28;20018;-69
2022/06/02 04:37:16;;;;;;;15.15;13.63;;;12.50;99.90;;;;;;2082423;28;20021;-69
2022/06/02 04:38:28;;;;;;;14.32;12.15;;;12.50;99.90;;;;;;2084716;28;20029;-69
2022/06/02 04:40:28;;;;;;;16.33;14.52;;;12.60;99.90;;;;;;2082515;28;20032;-69
2022/06/02 04:41:46;;;;;;;14.93;13.18;;;12.60;99.90;;;;;;2074373;28;20036;-70
2022/06/02 04:42:55;;;;;;;16.35;14.65;;;12.70;99.90;;;;;;2078505;28;20087;-69
2022/06/02 04:44:34;;;;;;;15.45;13.48;;;12.70;99.90;;;;;;2082600;28;20385;-69
2022/06/02 04:45:55;;;;;;;16.58;14.75;;;12.80;99.90;;;;;;2070242;28;20664;-69
2022/06/02 04:46:56;;;;;;;16.33;14.65;;;12.90;99.90;;;;;;2065549;28;20482;-69
2022/06/02 04:48:26;;;;;;;15.52;14.02;;;13.00;99.90;;;;;;2074033;28;20396;-69
2022/06/02 04:49:45;;;;;;;16.50;14.90;;;13.10;99.90;;;;;;2083427;28;20025;-69
2022/06/02 04:51:24;;;;;;;16.50;14.70;;;13.20;99.90;;;;;;2086092;28;20033;-69
2022/06/02 04:52:50;;;;;;;15.15;13.15;;;13.30;99.90;;;;;;2086357;28;20614;-70
2022/06/02 04:53:59;;;;;;;14.93;13.35;;;13.40;99.90;;;;;;2083250;28;20025;-70
2022/06/02 04:55:26;;;;;;;15.43;13.93;;;13.50;99.90;;;;;;2083531;28;20033;-69
2022/06/02 04:57:00;;;;;;;15.77;14.20;;;13.60;99.90;;;;;;2085729;28;20460;-69
2022/06/02 04:58:11;;;;;;;13.80;12.40;;;13.80;99.90;;;;;;2085480;28;20451;-69
2022/06/02 04:59:20;;;;;;;14.88;13.38;;;13.90;99.90;;;;;;2085666;28;20447;-69
2022/06/02 05:00:36;;;;;;;14.23;12.77;;;14.00;99.90;;;;;;2084961;28;20058;-69
2022/06/02 05:01:55;;;;;;;14.15;12.65;;;14.10;99.90;;;;;;2082660;28;20575;-69
2022/06/02 05:03:18;;;;;;;12.68;11.48;;;14.30;99.90;;;;;;2080176;28;20088;-69
2022/06/02 05:04:27;;;;;;;14.73;13.38;;;14.40;99.90;;;;;;2082632;28;20083;-69
2022/06/02 05:05:45;;;;;;;13.43;12.10;;;14.50;99.90;;;;;;2081886;28;20087;-69
2022/06/02 05:07:21;;;;;;;13.98;12.57;;;14.60;99.90;;;;;;2083565;28;20345;-69
2022/06/02 05:08:42;;;;;;;14.18;12.77;;;14.70;99.90;;;;;;2080736;28;20116;-69
2022/06/02 05:09:56;;;;;;;14.85;13.30;;;14.80;99.90;;;;;;2085602;28;20684;-69
2022/06/02 05:11:21;;;;;;;15.13;13.52;;;14.90;99.90;;;;;;2088315;28;20427;-69
2022/06/02 05:12:27;;;;;;;12.82;11.63;;;15.00;99.90;;;;;;2084466;28;20061;-69
2022/06/02 05:13:52;;;;;;;15.23;13.65;;;15.00;99.90;;;;;;2083929;28;20032;-69
2022/06/02 05:15:20;;;;;;;13.77;12.40;;;15.20;99.90;;;;;;2081227;28;20096;-69
2022/06/02 05:16:38;;;;;;;16.67;14.68;;;15.20;99.90;;;;;;2084380;28;20029;-69
2022/06/02 05:18:03;;;;;;;15.38;13.07;;;15.40;99.90;;;;;;2083579;28;20071;-69
2022/06/02 05:19:06;;;;;;;14.60;13.10;;;15.40;99.90;;;;;;2083190;28;20026;-69
2022/06/02 05:20:29;;;;;;;13.98;12.55;;;15.50;99.90;;;;;;2083689;28;20040;-70
2022/06/02 05:21:51;;;;;;;17.08;13.82;;;15.70;99.90;;;;;;2083430;28;20043;-69
2022/06/02 05:23:09;;;;;;;15.93;14.30;;;15.80;99.90;;;;;;2083518;28;20082;-69
2022/06/02 05:24:37;;;;;;;16.30;14.70;;;15.80;99.90;;;;;;2084496;28;20022;-69
2022/06/02 05:26:04;;;;;;;15.38;13.90;;;15.90;99.90;;;;;;2084485;28;20095;-69
2022/06/02 05:27:36;;;;;;;15.38;13.85;;;16.00;99.90;;;;;;2073514;28;20120;-69
2022/06/02 05:29:08;;;;;;;16.77;15.05;;;16.10;99.90;;;;;;2085151;28;20025;-69
2022/06/02 05:30:26;;;;;;;15.13;13.70;;;16.20;99.90;;;;;;2085175;28;20017;-69
2022/06/02 05:31:59;;;;;;;18.48;15.45;;;16.30;99.90;;;;;;2081584;28;20045;-69
2022/06/02 05:33:31;;;;;;;16.90;15.30;;;16.40;99.90;;;;;;2084710;28;20112;-69
2022/06/02 05:34:55;;;;;;;18.70;15.90;;;16.50;99.90;;;;;;2069570;28;20030;-69
2022/06/02 05:36:17;;;;;;;15.15;13.75;;;16.50;99.90;;;;;;2080986;28;20120;-69
2022/06/02 05:38:00;;;;;;;14.20;12.88;;;16.70;99.90;;;;;;2082609;28;20076;-69
2022/06/02 05:39:31;;;;;;;13.98;12.57;;;16.80;99.90;;;;;;2069234;28;20125;-69
2022/06/02 05:40:39;;;;;;;15.68;13.38;;;16.90;99.90;;;;;;2083082;28;20041;-70
2022/06/02 05:42:09;;;;;;;14.63;13.13;;;17.00;99.90;;;;;;2082127;28;20105;-70
2022/06/02 05:43:32;;;;;;;17.23;15.48;;;17.10;99.90;;;;;;2078485;28;20086;-70
2022/06/02 05:44:52;;;;;;;15.77;14.15;;;17.20;99.90;;;;;;2080494;28;20498;-70
2022/06/02 05:45:55;;;;;;;16.08;14.43;;;17.30;99.90;;;;;;2083440;28;20029;-70
2022/06/02 05:47:09;;;;;;;15.57;14.13;;;17.30;99.90;;;;;;2083860;28;20025;-70
2022/06/02 05:48:26;;;;;;;14.82;13.32;;;17.40;99.90;;;;;;2084429;28;20029;-70
2022/06/02 05:49:27;;;;;;;15.40;13.82;;;17.50;99.90;;;;;;2083055;28;20112;-70
2022/06/02 05:50:32;;;;;;;16.92;15.13;;;17.60;99.90;;;;;;2085943;28;20029;-70
2022/06/02 05:52:04;;;;;;;18.00;16.30;;;17.60;99.90;;;;;;2083777;28;20108;-70
2022/06/02 05:53:29;;;;;;;16.35;14.85;;;17.70;99.90;;;;;;2078420;28;20025;-70
2022/06/02 05:54:44;;;;;;;20.50;18.50;;;17.80;99.90;;;;;;2083193;28;20096;-70
2022/06/02 05:56:15;;;;;;;19.35;17.73;;;17.90;99.90;;;;;;2083646;28;20098;-70
2022/06/02 05:57:37;;;;;;;19.38;17.38;;;18.00;99.90;;;;;;2082037;28;20018;-70
2022/06/02 05:59:03;;;;;;;20.67;18.67;;;18.10;99.90;;;;;;2081634;28;20022;-70
2022/06/02 06:00:45;;;;;;;18.80;17.02;;;18.20;99.90;;;;;;2082582;28;20509;-70
2022/06/02 06:01:58;;;;;;;19.42;17.38;;;18.30;99.60;;;;;;2074631;28;20069;-70
2022/06/02 06:03:20;;;;;;;20.10;18.10;;;18.30;99.90;;;;;;2083716;28;20029;-70
2022/06/02 06:04:34;;;;;;;20.08;18.30;;;18.40;99.90;;;;;;2085090;28;20026;-70
2022/06/02 06:06:01;;;;;;;19.27;17.27;;;18.50;99.90;;;;;;2082601;28;20026;-70
2022/06/02 06:07:14;;;;;;;18.25;16.52;;;18.50;99.90;;;;;;2083244;28;20045;-70
2022/06/02 06:08:52;;;;;;;18.60;16.80;;;18.60;99.40;;;;;;2085104;28;20466;-70
2022/06/02 06:10:05;;;;;;;17.15;15.45;;;18.70;95.90;;;;;;2084756;28;20037;-70
2022/06/02 06:11:33;;;;;;;14.93;13.52;;;18.70;98.00;;;;;;2085975;28;20029;-70
2022/06/02 06:12:40;;;;;;;16.73;15.23;;;18.80;96.60;;;;;;2091662;28;20025;-70
2022/06/02 06:14:06;;;;;;;17.95;16.27;;;18.80;98.40;;;;;;2084783;28;20025;-70
2022/06/02 06:15:06;;;;;;;14.93;13.60;;;18.90;97.90;;;;;;2082982;28;20025;-70
2022/06/02 06:16:30;;;;;;;16.40;14.30;;;19.00;97.60;;;;;;2088531;28;20048;-70
2022/06/02 06:17:45;;;;;;;14.82;13.45;;;19.10;94.90;;;;;;2081582;28;20522;-70
2022/06/02 06:19:03;;;;;;;15.60;14.20;;;19.10;95.50;;;;;;2084584;28;20394;-70
2022/06/02 06:20:33;;;;;;;15.13;13.57;;;19.20;93.10;;;;;;2083534;28;20029;-70
2022/06/02 06:21:50;;;;;;;16.02;14.30;;;19.20;94.40;;;;;;2082102;28;20108;-70
2022/06/02 06:22:57;;;;;;;12.05;10.95;;;19.40;93.30;;;;;;2086764;28;20029;-70
2022/06/02 06:24:13;;;;;;;15.57;14.23;;;19.40;93.60;;;;;;2088245;28;20082;-70
2022/06/02 06:25:47;;;;;;;15.90;13.80;;;19.50;93.20;;;;;;2084490;28;20025;-70
2022/06/02 06:27:00;;;;;;;14.85;13.32;;;19.60;91.50;;;;;;2082888;28;20690;-70
2022/06/02 06:28:16;;;;;;;12.10;11.10;;;19.60;91.80;;;;;;2082334;28;20124;-70
2022/06/02 06:29:36;;;;;;;14.52;13.13;;;19.70;90.90;;;;;;2084258;28;20030;-70
2022/06/02 06:30:54;;;;;;;16.13;14.25;;;19.70;88.20;;;;;;2085028;28;20536;-70
2022/06/02 06:32:15;;;;;;;13.18;11.98;;;19.80;85.60;;;;;;2083746;28;20044;-69
2022/06/02 06:33:56;;;;;;;12.77;11.68;;;19.80;86.80;;;;;;2081372;28;20026;-70
2022/06/02 06:35:36;;;;;;;12.32;11.23;;;19.80;84.30;;;;;;2083755;28;20033;-70
2022/06/02 06:37:01;;;;;;;12.68;11.35;;;19.90;86.30;;;;;;2078315;28;20061;-70
2022/06/02 06:38:35;;;;;;;14.15;12.48;;;20.00;86.70;;;;;;2085676;28;20037;-70
2022/06/02 06:39:58;;;;;;;15.10;13.20;;;20.00;82.70;;;;;;2084412;28;20033;-70
2022/06/02 06:41:20;;;;;;;13.30;12.00;;;20.00;83.60;;;;;;2083082;28;20401;-70
2022/06/02 06:42:40;;;;;;;11.60;10.55;;;20.00;84.70;;;;;;2082602;28;20031;-70
2022/06/02 06:43:49;;;;;;;12.02;11.00;;;20.00;83.20;;;;;;2084557;28;20449;-70
2022/06/02 06:45:13;;;;;;;11.83;10.83;;;19.90;80.70;;;;;;2083507;28;20028;-70
2022/06/02 06:46:36;;;;;;;11.70;10.57;;;19.90;82.30;;;;;;2069639;28;20367;-70
2022/06/02 06:47:58;;;;;;;11.80;10.80;;;20.00;81.70;;;;;;2084330;28;20033;-70
2022/06/02 06:49:14;;;;;;;11.25;10.35;;;20.00;79.90;;;;;;2087529;28;20038;-70
2022/06/02 06:50:28;;;;;;;11.73;10.55;;;20.00;79.20;;;;;;2089070;28;20035;-70
2022/06/02 06:51:44;;;;;;;9.25;8.25;;;20.00;79.90;;;;;;2084386;28;20022;-70
2022/06/02 06:52:44;;;;;;;12.52;8.60;;;20.10;78.90;;;;;;2081450;28;20021;-70
2022/06/02 06:53:51;;;;;;;10.77;9.50;;;20.10;79.10;;;;;;2081364;28;20022;-70
2022/06/02 06:55:18;;;;;;;10.90;9.88;;;20.20;78.20;;;;;;2080385;28;20037;-70
2022/06/02 06:56:36;;;;;;;10.98;9.80;;;20.30;77.50;;;;;;2080992;28;20018;-70
2022/06/02 06:57:57;;;;;;;10.43;9.38;;;20.40;77.00;;;;;;2083534;28;20627;-70